Clarkton, MO (63837)

8:24 PM CDT on July 28, 2014 (GMT -0500)
Peach Orchard (KMOGIDEO2) Elev 263 ft | 36.37 °N, 89.94 °W | Change Station

Current weather conditions updated 2 seconds ago

Partly Cloudy
Partly Cloudy
75.0 °F
Feels Like 76 °F
N
6.0
Wind Variable Wind from NNE
Gusts 6.0 mph

Tomorrow is forecast to be nearly the same temperature as today.

Today
High -- | Low -- °F
--% Chance of Precip.
Yesterday
High -- | Low -- °F
Precip. -- in
6:03 AM 8:09 PM
Waxing Crescent, 4% visible
Pressure 30.01 in
Visibility 10.0 miles
Clouds Few 7000 ft
Heat Index 76 °F
Dew Point 66 °F
Humidity 73%
Rainfall 0.00 in
Snow Depth Not available.
UV 0 out of 12
Pollen 7.30 out of 12
Air Quality Not available.
Flu Activity Not available.
METAR KPOF 290053Z AUTO 03005KT 10SM FEW070 25/16 A3003 RMK AO2 SLP163 T02500156

More Conditions Fewer Conditions

Pressure 30.01 in
Visibility 10.0 miles
Clouds Few 7000 ft
Heat Index 76 °F
Dew Point 66 °F
Humidity 73%
Rainfall 0.00 in
Snow Depth Not available.
UV 0 out of 12
Pollen 7.30 out of 12
Air Quality Not available.
Flu Activity Not available.
METAR KPOF 290053Z AUTO 03005KT 10SM FEW070 25/16 A3003 RMK AO2 SLP163 T02500156

More Conditions Fewer Conditions

10-Day Weather Forecast

Almanac

Astronomy

Jul. 28, 2014 Rise Set
Actual Time 6:03 AM CDT 8:09 PM CDT
Civil Twilight 5:34 AM CDT 8:37 PM CDT
Nautical Twilight 4:59 AM CDT 9:12 PM CDT
Astronomical Twilight 4:21 AM CDT 9:50 PM CDT
Moon 7:40 AM CDT (7/28) 8:56 PM CDT (7/28)
Length of Visible Light 15h 03m
Length of Day
14h 06m
Tomorrow will be 1m 38s shorter.
Waxing Crescent, 4% of the Moon is Illuminated
Today
Waxing Crescent
Aug 3
First Quarter
Aug 10
Full
Aug 17
Last Quarter
Aug 25
New

Today's Extremes

State Highs State Lows

Community

WunderPhotos

Upload Photos

1,738,579 photos uploaded!

WunderBlogs® & News

Nearby

Snow Depth

Station Depth Elevation
No new snow has been reported.

Earthquake Activity

City Distance Mag. Time & Date
No recent earthquake activity has been reported nearby.
Minimum magnitude displayed is 2.5.

Coastal Water Temperatures

Place Temperature
No Stations Reporting

Nearby Weather Stations

Station Location Temp. Heat Index Dew Point Humidity Wind Precip. Elev Updated Type
Peach Orchard, Gideon, MO 75.0 °F 76 °F 66 °F 73% NNE  at  6.0 mph 0.00 in / hr 263 ft 8:24 PM CDT Rapid Fire
Kennett E911, Kennett, MO 78.5 °F 80 °F 66 °F 66% NE  at  2.0 mph 0.00 in / hr 262 ft 8:24 PM CDT Rapid Fire
KC0UFP WX, Kennett, MO 78.1 °F 80 °F 66 °F 67% North  at  4.2 mph - / hr 262 ft 8:12 PM CDT Normal
MesoWest DEXTER , 80 °F 81 °F 62 °F 54% NNE  at  3 mph 0.00 in / hr 305 ft 7:00 PM EDT MADIS
Dexterweather.com, Dexter, MO 75.6 °F 78 °F 62 °F 63% North  at  3.0 mph 0.00 in / hr 420 ft 8:24 PM CDT Rapid Fire

Show More Stations Show Fewer Stations